sensor_id;sensor_type;location;lat;lon;timestamp;temperature;humidity
72814;DHT22;60945;48.516;-2.768;2022-12-01T00:00:31;4.70;85.40
72814;DHT22;60945;48.516;-2.768;2022-12-01T00:02:58;4.70;85.60
72814;DHT22;60945;48.516;-2.768;2022-12-01T00:05:23;4.70;85.60
72814;DHT22;60945;48.516;-2.768;2022-12-01T00:07:52;4.80;85.50
72814;DHT22;60945;48.516;-2.768;2022-12-01T00:10:17;4.80;85.10
72814;DHT22;60945;48.516;-2.768;2022-12-01T00:12:58;4.80;85.20
72814;DHT22;60945;48.516;-2.768;2022-12-01T00:15:33;4.80;85.20
72814;DHT22;60945;48.516;-2.768;2022-12-01T00:18:00;4.80;85.00
72814;DHT22;60945;48.516;-2.768;2022-12-01T00:20:26;4.80;85.10
72814;DHT22;60945;48.516;-2.768;2022-12-01T00:22:52;4.70;85.20
72814;DHT22;60945;48.516;-2.768;2022-12-01T00:25:21;4.70;85.50
72814;DHT22;60945;48.516;-2.768;2022-12-01T00:27:47;4.70;85.60
72814;DHT22;60945;48.516;-2.768;2022-12-01T00:30:14;4.70;86.10
72814;DHT22;60945;48.516;-2.768;2022-12-01T00:32:40;4.90;86.10
72814;DHT22;60945;48.516;-2.768;2022-12-01T00:35:06;5.00;85.60
72814;DHT22;60945;48.516;-2.768;2022-12-01T00:37:32;5.20;85.30
72814;DHT22;60945;48.516;-2.768;2022-12-01T00:39:59;5.40;84.40
72814;DHT22;60945;48.516;-2.768;2022-12-01T00:42:25;5.70;83.60
72814;DHT22;60945;48.516;-2.768;2022-12-01T00:44:52;5.80;82.90
72814;DHT22;60945;48.516;-2.768;2022-12-01T00:47:17;5.90;82.10
72814;DHT22;60945;48.516;-2.768;2022-12-01T00:49:43;5.90;81.60
72814;DHT22;60945;48.516;-2.768;2022-12-01T00:52:11;5.80;81.30
72814;DHT22;60945;48.516;-2.768;2022-12-01T00:54:36;5.90;81.40
72814;DHT22;60945;48.516;-2.768;2022-12-01T00:57:02;6.00;81.40
72814;DHT22;60945;48.516;-2.768;2022-12-01T00:59:31;5.90;80.70
72814;DHT22;60945;48.516;-2.768;2022-12-01T01:01:57;5.90;81.20
72814;DHT22;60945;48.516;-2.768;2022-12-01T01:04:22;5.70;81.30
72814;DHT22;60945;48.516;-2.768;2022-12-01T01:06:48;5.80;81.50
72814;DHT22;60945;48.516;-2.768;2022-12-01T01:09:15;5.90;81.10
72814;DHT22;60945;48.516;-2.768;2022-12-01T01:11:42;5.80;80.90
72814;DHT22;60945;48.516;-2.768;2022-12-01T01:14:08;5.70;81.20
72814;DHT22;60945;48.516;-2.768;2022-12-01T01:16:34;5.60;82.30
72814;DHT22;60945;48.516;-2.768;2022-12-01T01:18:59;5.50;82.10
72814;DHT22;60945;48.516;-2.768;2022-12-01T01:21:26;5.50;82.30
72814;DHT22;60945;48.516;-2.768;2022-12-01T01:23:53;5.50;82.30
72814;DHT22;60945;48.516;-2.768;2022-12-01T01:26:24;5.40;82.70
72814;DHT22;60945;48.516;-2.768;2022-12-01T01:28:51;5.50;82.10
72814;DHT22;60945;48.516;-2.768;2022-12-01T01:31:20;5.50;82.20
72814;DHT22;60945;48.516;-2.768;2022-12-01T01:33:46;5.20;82.30
72814;DHT22;60945;48.516;-2.768;2022-12-01T01:36:12;5.10;83.70
72814;DHT22;60945;48.516;-2.768;2022-12-01T01:38:38;5.30;83.10
72814;DHT22;60945;48.516;-2.768;2022-12-01T01:41:05;5.30;82.10
72814;DHT22;60945;48.516;-2.768;2022-12-01T01:46:26;5.10;83.10
72814;DHT22;60945;48.516;-2.768;2022-12-01T01:48:57;4.80;83.40
72814;DHT22;60945;48.516;-2.768;2022-12-01T01:54:00;4.70;84.40
72814;DHT22;60945;48.516;-2.768;2022-12-01T01:56:27;4.70;84.80
72814;DHT22;60945;48.516;-2.768;2022-12-01T01:58:53;4.50;85.50
72814;DHT22;60945;48.516;-2.768;2022-12-01T02:01:19;4.50;86.20
72814;DHT22;60945;48.516;-2.768;2022-12-01T02:03:46;4.50;85.70
72814;DHT22;60945;48.516;-2.768;2022-12-01T02:06:12;4.30;86.30
72814;DHT22;60945;48.516;-2.768;2022-12-01T02:08:38;4.40;86.40
72814;DHT22;60945;48.516;-2.768;2022-12-01T02:11:21;4.50;85.50
72814;DHT22;60945;48.516;-2.768;2022-12-01T02:16:53;4.50;85.20
72814;DHT22;60945;48.516;-2.768;2022-12-01T02:22:17;4.40;86.10
72814;DHT22;60945;48.516;-2.768;2022-12-01T02:24:51;4.50;85.60
72814;DHT22;60945;48.516;-2.768;2022-12-01T02:30:13;4.70;85.10
72814;DHT22;60945;48.516;-2.768;2022-12-01T02:37:58;4.70;85.20
72814;DHT22;60945;48.516;-2.768;2022-12-01T02:40:33;4.60;85.30
72814;DHT22;60945;48.516;-2.768;2022-12-01T02:43:13;4.70;85.00
72814;DHT22;60945;48.516;-2.768;2022-12-01T02:46:01;4.80;84.80
72814;DHT22;60945;48.516;-2.768;2022-12-01T02:48:35;4.60;84.20
72814;DHT22;60945;48.516;-2.768;2022-12-01T02:51:18;4.50;85.20
72814;DHT22;60945;48.516;-2.768;2022-12-01T02:53:45;4.40;86.00
72814;DHT22;60945;48.516;-2.768;2022-12-01T02:56:12;4.40;86.30
72814;DHT22;60945;48.516;-2.768;2022-12-01T02:58:41;4.30;86.30
72814;DHT22;60945;48.516;-2.768;2022-12-01T03:03:58;4.30;87.20
72814;DHT22;60945;48.516;-2.768;2022-12-01T03:06:44;4.40;86.60
72814;DHT22;60945;48.516;-2.768;2022-12-01T03:12:03;4.60;85.60
72814;DHT22;60945;48.516;-2.768;2022-12-01T03:17:42;4.50;85.70
72814;DHT22;60945;48.516;-2.768;2022-12-01T03:23:05;4.50;85.80
72814;DHT22;60945;48.516;-2.768;2022-12-01T03:25:33;4.60;85.90
72814;DHT22;60945;48.516;-2.768;2022-12-01T03:28:00;4.90;84.50
72814;DHT22;60945;48.516;-2.768;2022-12-01T03:30:27;4.90;84.20
72814;DHT22;60945;48.516;-2.768;2022-12-01T03:33:07;5.00;83.30
72814;DHT22;60945;48.516;-2.768;2022-12-01T03:35:46;4.90;83.50
72814;DHT22;60945;48.516;-2.768;2022-12-01T03:38:17;5.10;83.40
72814;DHT22;60945;48.516;-2.768;2022-12-01T03:40:46;5.20;82.60
72814;DHT22;60945;48.516;-2.768;2022-12-01T03:43:18;5.30;82.10
72814;DHT22;60945;48.516;-2.768;2022-12-01T03:48:49;5.50;80.90
72814;DHT22;60945;48.516;-2.768;2022-12-01T03:51:30;5.20;81.00
72814;DHT22;60945;48.516;-2.768;2022-12-01T03:54:15;4.90;82.80
72814;DHT22;60945;48.516;-2.768;2022-12-01T03:56:47;4.90;82.50
72814;DHT22;60945;48.516;-2.768;2022-12-01T03:59:15;4.80;83.40
72814;DHT22;60945;48.516;-2.768;2022-12-01T04:01:44;4.70;83.80
72814;DHT22;60945;48.516;-2.768;2022-12-01T04:04:12;4.80;84.20
72814;DHT22;60945;48.516;-2.768;2022-12-01T04:06:48;4.80;83.80
72814;DHT22;60945;48.516;-2.768;2022-12-01T04:09:15;4.80;83.60
72814;DHT22;60945;48.516;-2.768;2022-12-01T04:11:40;4.70;83.30
72814;DHT22;60945;48.516;-2.768;2022-12-01T04:14:24;4.70;84.40
72814;DHT22;60945;48.516;-2.768;2022-12-01T04:16:50;4.70;83.80
72814;DHT22;60945;48.516;-2.768;2022-12-01T04:19:16;4.70;84.10
72814;DHT22;60945;48.516;-2.768;2022-12-01T04:21:42;4.80;83.40
72814;DHT22;60945;48.516;-2.768;2022-12-01T04:24:07;4.60;83.90
72814;DHT22;60945;48.516;-2.768;2022-12-01T04:26:35;4.50;84.10
72814;DHT22;60945;48.516;-2.768;2022-12-01T04:29:04;4.50;84.90
72814;DHT22;60945;48.516;-2.768;2022-12-01T04:31:30;4.50;84.50
72814;DHT22;60945;48.516;-2.768;2022-12-01T04:33:57;4.50;84.40
72814;DHT22;60945;48.516;-2.768;2022-12-01T04:36:23;4.40;85.00
72814;DHT22;60945;48.516;-2.768;2022-12-01T04:38:49;4.50;85.10
72814;DHT22;60945;48.516;-2.768;2022-12-01T04:41:15;4.70;84.80
72814;DHT22;60945;48.516;-2.768;2022-12-01T04:43:41;4.70;84.30
72814;DHT22;60945;48.516;-2.768;2022-12-01T04:46:07;4.70;84.20
72814;DHT22;60945;48.516;-2.768;2022-12-01T04:48:34;4.60;84.60
72814;DHT22;60945;48.516;-2.768;2022-12-01T04:51:00;4.60;84.60
72814;DHT22;60945;48.516;-2.768;2022-12-01T04:53:26;4.70;84.80
72814;DHT22;60945;48.516;-2.768;2022-12-01T04:55:52;4.80;83.90
72814;DHT22;60945;48.516;-2.768;2022-12-01T04:58:17;4.70;83.70
72814;DHT22;60945;48.516;-2.768;2022-12-01T05:00:43;4.70;84.30
72814;DHT22;60945;48.516;-2.768;2022-12-01T05:03:09;4.80;83.90
72814;DHT22;60945;48.516;-2.768;2022-12-01T05:05:34;4.80;83.40
72814;DHT22;60945;48.516;-2.768;2022-12-01T05:08:00;4.50;84.10
72814;DHT22;60945;48.516;-2.768;2022-12-01T05:10:26;4.50;84.30
72814;DHT22;60945;48.516;-2.768;2022-12-01T05:12:52;4.50;84.90
72814;DHT22;60945;48.516;-2.768;2022-12-01T05:15:19;4.60;84.90
72814;DHT22;60945;48.516;-2.768;2022-12-01T05:17:45;4.80;84.20
72814;DHT22;60945;48.516;-2.768;2022-12-01T05:20:18;4.90;83.80
72814;DHT22;60945;48.516;-2.768;2022-12-01T05:23:02;4.80;83.40
72814;DHT22;60945;48.516;-2.768;2022-12-01T05:25:27;4.80;83.40
72814;DHT22;60945;48.516;-2.768;2022-12-01T05:27:53;4.90;82.90
72814;DHT22;60945;48.516;-2.768;2022-12-01T05:30:19;5.00;83.30
72814;DHT22;60945;48.516;-2.768;2022-12-01T05:32:45;5.20;82.60
72814;DHT22;60945;48.516;-2.768;2022-12-01T05:35:10;5.10;82.40
72814;DHT22;60945;48.516;-2.768;2022-12-01T05:37:36;5.20;82.20
72814;DHT22;60945;48.516;-2.768;2022-12-01T05:40:01;4.90;82.50
72814;DHT22;60945;48.516;-2.768;2022-12-01T05:42:27;5.00;82.50
72814;DHT22;60945;48.516;-2.768;2022-12-01T05:44:53;5.10;82.30
72814;DHT22;60945;48.516;-2.768;2022-12-01T05:47:18;5.00;82.00
72814;DHT22;60945;48.516;-2.768;2022-12-01T05:49:44;5.20;82.30
72814;DHT22;60945;48.516;-2.768;2022-12-01T05:52:09;5.20;81.90
72814;DHT22;60945;48.516;-2.768;2022-12-01T05:54:35;5.10;82.20
72814;DHT22;60945;48.516;-2.768;2022-12-01T05:57:03;5.10;82.30
72814;DHT22;60945;48.516;-2.768;2022-12-01T05:59:29;5.10;82.20
72814;DHT22;60945;48.516;-2.768;2022-12-01T06:01:54;5.10;82.50
72814;DHT22;60945;48.516;-2.768;2022-12-01T06:04:20;5.10;82.60
72814;DHT22;60945;48.516;-2.768;2022-12-01T06:06:49;5.20;82.70
72814;DHT22;60945;48.516;-2.768;2022-12-01T06:09:15;5.40;81.80
72814;DHT22;60945;48.516;-2.768;2022-12-01T06:11:41;5.30;81.10
72814;DHT22;60945;48.516;-2.768;2022-12-01T06:14:06;5.30;81.30
72814;DHT22;60945;48.516;-2.768;2022-12-01T06:16:32;5.20;81.40
72814;DHT22;60945;48.516;-2.768;2022-12-01T06:18:58;5.10;81.70
72814;DHT22;60945;48.516;-2.768;2022-12-01T06:21:23;5.10;82.20
72814;DHT22;60945;48.516;-2.768;2022-12-01T06:23:49;5.20;82.20
72814;DHT22;60945;48.516;-2.768;2022-12-01T06:26:14;5.20;81.80
72814;DHT22;60945;48.516;-2.768;2022-12-01T06:28:40;5.10;81.60
72814;DHT22;60945;48.516;-2.768;2022-12-01T06:31:06;5.20;81.80
72814;DHT22;60945;48.516;-2.768;2022-12-01T06:33:31;4.80;82.00
72814;DHT22;60945;48.516;-2.768;2022-12-01T06:36:02;4.70;82.60
72814;DHT22;60945;48.516;-2.768;2022-12-01T06:38:30;4.50;83.60
72814;DHT22;60945;48.516;-2.768;2022-12-01T06:40:55;4.70;83.90
72814;DHT22;60945;48.516;-2.768;2022-12-01T06:43:21;4.80;83.50
72814;DHT22;60945;48.516;-2.768;2022-12-01T06:45:47;4.80;83.00
72814;DHT22;60945;48.516;-2.768;2022-12-01T06:48:13;4.80;82.90
72814;DHT22;60945;48.516;-2.768;2022-12-01T06:50:38;4.80;82.90
72814;DHT22;60945;48.516;-2.768;2022-12-01T06:53:04;5.10;82.90
72814;DHT22;60945;48.516;-2.768;2022-12-01T06:55:30;5.10;82.00
72814;DHT22;60945;48.516;-2.768;2022-12-01T06:57:59;5.20;82.10
72814;DHT22;60945;48.516;-2.768;2022-12-01T07:00:25;5.10;81.20
72814;DHT22;60945;48.516;-2.768;2022-12-01T07:02:51;5.00;82.00
72814;DHT22;60945;48.516;-2.768;2022-12-01T07:05:16;5.00;81.80
72814;DHT22;60945;48.516;-2.768;2022-12-01T07:07:42;5.10;82.40
72814;DHT22;60945;48.516;-2.768;2022-12-01T07:10:09;5.30;81.70
72814;DHT22;60945;48.516;-2.768;2022-12-01T07:12:35;5.20;81.20
72814;DHT22;60945;48.516;-2.768;2022-12-01T07:15:01;5.20;81.40
72814;DHT22;60945;48.516;-2.768;2022-12-01T07:17:28;5.00;82.00
72814;DHT22;60945;48.516;-2.768;2022-12-01T07:19:54;4.90;82.40
72814;DHT22;60945;48.516;-2.768;2022-12-01T07:22:22;5.00;82.50
72814;DHT22;60945;48.516;-2.768;2022-12-01T07:24:47;5.00;82.80
72814;DHT22;60945;48.516;-2.768;2022-12-01T07:27:13;5.00;82.50
72814;DHT22;60945;48.516;-2.768;2022-12-01T07:29:39;4.90;82.50
72814;DHT22;60945;48.516;-2.768;2022-12-01T07:32:04;4.70;83.50
72814;DHT22;60945;48.516;-2.768;2022-12-01T07:34:30;4.90;83.90
72814;DHT22;60945;48.516;-2.768;2022-12-01T07:36:56;5.00;83.20
72814;DHT22;60945;48.516;-2.768;2022-12-01T07:39:21;5.10;82.90
72814;DHT22;60945;48.516;-2.768;2022-12-01T07:41:47;5.00;83.00
72814;DHT22;60945;48.516;-2.768;2022-12-01T07:44:13;5.00;83.50
72814;DHT22;60945;48.516;-2.768;2022-12-01T07:46:38;5.20;83.50
72814;DHT22;60945;48.516;-2.768;2022-12-01T07:49:06;5.30;83.00
72814;DHT22;60945;48.516;-2.768;2022-12-01T07:51:32;5.00;82.70
72814;DHT22;60945;48.516;-2.768;2022-12-01T07:54:02;5.00;83.90
72814;DHT22;60945;48.516;-2.768;2022-12-01T07:56:27;5.00;84.20
72814;DHT22;60945;48.516;-2.768;2022-12-01T07:58:53;5.20;83.60
72814;DHT22;60945;48.516;-2.768;2022-12-01T08:01:23;5.10;83.70
72814;DHT22;60945;48.516;-2.768;2022-12-01T08:03:54;5.10;83.50
72814;DHT22;60945;48.516;-2.768;2022-12-01T08:06:21;5.10;83.70
72814;DHT22;60945;48.516;-2.768;2022-12-01T08:08:47;5.20;83.20
72814;DHT22;60945;48.516;-2.768;2022-12-01T08:11:19;5.30;83.00
72814;DHT22;60945;48.516;-2.768;2022-12-01T08:13:45;5.30;83.30
72814;DHT22;60945;48.516;-2.768;2022-12-01T08:16:31;5.30;83.30
72814;DHT22;60945;48.516;-2.768;2022-12-01T08:19:00;5.10;83.30
72814;DHT22;60945;48.516;-2.768;2022-12-01T08:21:25;5.20;83.30
72814;DHT22;60945;48.516;-2.768;2022-12-01T08:23:53;5.00;83.60
72814;DHT22;60945;48.516;-2.768;2022-12-01T08:26:20;5.00;84.00
72814;DHT22;60945;48.516;-2.768;2022-12-01T08:28:46;5.10;84.30
72814;DHT22;60945;48.516;-2.768;2022-12-01T08:31:24;5.00;84.10
72814;DHT22;60945;48.516;-2.768;2022-12-01T08:33:51;4.90;84.60
72814;DHT22;60945;48.516;-2.768;2022-12-01T08:36:18;5.10;84.60
72814;DHT22;60945;48.516;-2.768;2022-12-01T08:38:46;5.20;84.20
72814;DHT22;60945;48.516;-2.768;2022-12-01T08:41:12;5.30;83.50
72814;DHT22;60945;48.516;-2.768;2022-12-01T08:43:38;5.40;83.50
72814;DHT22;60945;48.516;-2.768;2022-12-01T08:46:06;5.50;83.30
72814;DHT22;60945;48.516;-2.768;2022-12-01T08:48:32;5.60;83.10
72814;DHT22;60945;48.516;-2.768;2022-12-01T08:51:24;5.80;82.60
72814;DHT22;60945;48.516;-2.768;2022-12-01T08:53:55;5.90;81.50
72814;DHT22;60945;48.516;-2.768;2022-12-01T08:58:52;6.00;80.70
72814;DHT22;60945;48.516;-2.768;2022-12-01T09:01:18;6.20;80.80
72814;DHT22;60945;48.516;-2.768;2022-12-01T09:03:44;6.20;80.20
72814;DHT22;60945;48.516;-2.768;2022-12-01T09:06:19;6.10;80.20
72814;DHT22;60945;48.516;-2.768;2022-12-01T09:08:45;6.30;79.80
72814;DHT22;60945;48.516;-2.768;2022-12-01T09:11:14;6.40;79.60
72814;DHT22;60945;48.516;-2.768;2022-12-01T09:13:41;6.60;79.60
72814;DHT22;60945;48.516;-2.768;2022-12-01T09:16:13;6.80;78.30
72814;DHT22;60945;48.516;-2.768;2022-12-01T09:18:39;6.80;78.20
72814;DHT22;60945;48.516;-2.768;2022-12-01T09:21:17;6.90;77.80
72814;DHT22;60945;48.516;-2.768;2022-12-01T09:23:43;6.80;77.70
72814;DHT22;60945;48.516;-2.768;2022-12-01T09:26:09;6.60;78.40
72814;DHT22;60945;48.516;-2.768;2022-12-01T09:28:35;6.40;78.80
72814;DHT22;60945;48.516;-2.768;2022-12-01T09:31:06;6.30;80.10
72814;DHT22;60945;48.516;-2.768;2022-12-01T09:33:32;6.60;80.20
72814;DHT22;60945;48.516;-2.768;2022-12-01T09:35:59;6.70;79.40
72814;DHT22;60945;48.516;-2.768;2022-12-01T09:38:27;6.70;79.10
72814;DHT22;60945;48.516;-2.768;2022-12-01T09:40:54;7.00;78.90
72814;DHT22;60945;48.516;-2.768;2022-12-01T09:43:23;7.20;77.60
72814;DHT22;60945;48.516;-2.768;2022-12-01T09:46:02;7.10;77.70
72814;DHT22;60945;48.516;-2.768;2022-12-01T09:48:35;7.10;79.10
72814;DHT22;60945;48.516;-2.768;2022-12-01T09:51:18;7.20;78.40
72814;DHT22;60945;48.516;-2.768;2022-12-01T09:53:48;7.30;78.20
72814;DHT22;60945;48.516;-2.768;2022-12-01T09:56:45;7.40;77.90
72814;DHT22;60945;48.516;-2.768;2022-12-01T09:59:21;7.10;78.40
72814;DHT22;60945;48.516;-2.768;2022-12-01T10:02:00;6.90;79.50
72814;DHT22;60945;48.516;-2.768;2022-12-01T10:04:34;7.20;79.30
72814;DHT22;60945;48.516;-2.768;2022-12-01T10:07:02;7.30;79.00
72814;DHT22;60945;48.516;-2.768;2022-12-01T10:09:39;7.50;78.80
72814;DHT22;60945;48.516;-2.768;2022-12-01T10:12:18;7.50;78.10
72814;DHT22;60945;48.516;-2.768;2022-12-01T10:14:46;7.60;78.20
72814;DHT22;60945;48.516;-2.768;2022-12-01T10:20:35;7.50;78.40
72814;DHT22;60945;48.516;-2.768;2022-12-01T10:25:57;7.50;78.40
72814;DHT22;60945;48.516;-2.768;2022-12-01T10:28:47;7.60;78.60
72814;DHT22;60945;48.516;-2.768;2022-12-01T10:31:20;7.50;78.70
72814;DHT22;60945;48.516;-2.768;2022-12-01T10:34:01;7.50;79.10
72814;DHT22;60945;48.516;-2.768;2022-12-01T10:36:28;7.60;78.60
72814;DHT22;60945;48.516;-2.768;2022-12-01T10:38:55;7.50;78.60
72814;DHT22;60945;48.516;-2.768;2022-12-01T10:41:23;7.50;78.80
72814;DHT22;60945;48.516;-2.768;2022-12-01T10:43:56;7.80;79.10
72814;DHT22;60945;48.516;-2.768;2022-12-01T10:46:36;8.60;77.40
72814;DHT22;60945;48.516;-2.768;2022-12-01T10:49:14;8.80;74.20
72814;DHT22;60945;48.516;-2.768;2022-12-01T10:51:55;8.80;74.40
72814;DHT22;60945;48.516;-2.768;2022-12-01T10:54:27;8.80;74.60
72814;DHT22;60945;48.516;-2.768;2022-12-01T10:56:56;9.10;73.50
72814;DHT22;60945;48.516;-2.768;2022-12-01T10:59:42;9.00;73.40
72814;DHT22;60945;48.516;-2.768;2022-12-01T11:02:16;8.80;74.60
72814;DHT22;60945;48.516;-2.768;2022-12-01T11:07:34;9.10;74.10
72814;DHT22;60945;48.516;-2.768;2022-12-01T11:12:38;9.30;73.90
72814;DHT22;60945;48.516;-2.768;2022-12-01T11:15:04;9.50;73.20
72814;DHT22;60945;48.516;-2.768;2022-12-01T11:17:40;9.40;72.90
72814;DHT22;60945;48.516;-2.768;2022-12-01T11:20:29;9.50;73.30
72814;DHT22;60945;48.516;-2.768;2022-12-01T11:26:08;9.40;73.90
72814;DHT22;60945;48.516;-2.768;2022-12-01T11:28:35;9.70;73.40
72814;DHT22;60945;48.516;-2.768;2022-12-01T11:31:06;9.50;73.40
72814;DHT22;60945;48.516;-2.768;2022-12-01T11:33:43;9.40;74.20
72814;DHT22;60945;48.516;-2.768;2022-12-01T11:36:09;9.30;74.60
72814;DHT22;60945;48.516;-2.768;2022-12-01T11:38:43;9.40;74.70
72814;DHT22;60945;48.516;-2.768;2022-12-01T11:41:35;9.40;75.00
72814;DHT22;60945;48.516;-2.768;2022-12-01T11:44:05;9.50;74.80
72814;DHT22;60945;48.516;-2.768;2022-12-01T11:46:37;9.60;74.60
72814;DHT22;60945;48.516;-2.768;2022-12-01T11:49:03;9.20;75.70
72814;DHT22;60945;48.516;-2.768;2022-12-01T11:51:32;9.00;76.90
72814;DHT22;60945;48.516;-2.768;2022-12-01T11:54:21;9.30;77.00
72814;DHT22;60945;48.516;-2.768;2022-12-01T11:56:48;9.90;75.00
72814;DHT22;60945;48.516;-2.768;2022-12-01T11:59:21;10.30;74.00
72814;DHT22;60945;48.516;-2.768;2022-12-01T12:04:45;10.10;73.70
72814;DHT22;60945;48.516;-2.768;2022-12-01T12:07:48;9.80;74.70
72814;DHT22;60945;48.516;-2.768;2022-12-01T12:13:18;9.60;77.10
72814;DHT22;60945;48.516;-2.768;2022-12-01T12:24:11;10.00;76.20
72814;DHT22;60945;48.516;-2.768;2022-12-01T12:26:50;9.90;76.00
72814;DHT22;60945;48.516;-2.768;2022-12-01T12:29:46;9.80;76.30
72814;DHT22;60945;48.516;-2.768;2022-12-01T12:32:34;9.70;77.30
72814;DHT22;60945;48.516;-2.768;2022-12-01T12:35:18;9.60;76.90
72814;DHT22;60945;48.516;-2.768;2022-12-01T12:38:02;9.70;77.40
72814;DHT22;60945;48.516;-2.768;2022-12-01T12:40:59;9.80;77.10
72814;DHT22;60945;48.516;-2.768;2022-12-01T12:49:35;9.80;77.30
72814;DHT22;60945;48.516;-2.768;2022-12-01T12:52:15;10.30;76.50
72814;DHT22;60945;48.516;-2.768;2022-12-01T12:54:51;10.90;74.30
72814;DHT22;60945;48.516;-2.768;2022-12-01T13:00:15;11.00;73.00
72814;DHT22;60945;48.516;-2.768;2022-12-01T13:02:50;10.80;72.90
72814;DHT22;60945;48.516;-2.768;2022-12-01T13:08:42;10.50;74.30
72814;DHT22;60945;48.516;-2.768;2022-12-01T13:11:24;10.20;75.10
72814;DHT22;60945;48.516;-2.768;2022-12-01T13:16:41;10.20;76.10
72814;DHT22;60945;48.516;-2.768;2022-12-01T13:21:45;10.50;75.50
72814;DHT22;60945;48.516;-2.768;2022-12-01T13:24:16;10.60;74.90
72814;DHT22;60945;48.516;-2.768;2022-12-01T13:26:58;10.70;75.00
72814;DHT22;60945;48.516;-2.768;2022-12-01T13:29:33;10.80;74.30
72814;DHT22;60945;48.516;-2.768;2022-12-01T13:32:01;10.60;75.10
72814;DHT22;60945;48.516;-2.768;2022-12-01T13:34:31;10.50;75.80
72814;DHT22;60945;48.516;-2.768;2022-12-01T13:36:59;10.60;75.70
72814;DHT22;60945;48.516;-2.768;2022-12-01T13:39:27;10.70;75.40
72814;DHT22;60945;48.516;-2.768;2022-12-01T13:42:22;10.70;75.00
72814;DHT22;60945;48.516;-2.768;2022-12-01T13:44:58;10.70;75.20
72814;DHT22;60945;48.516;-2.768;2022-12-01T13:47:48;10.50;75.90
72814;DHT22;60945;48.516;-2.768;2022-12-01T13:58:45;10.50;76.60
72814;DHT22;60945;48.516;-2.768;2022-12-01T14:01:40;10.60;76.30
72814;DHT22;60945;48.516;-2.768;2022-12-01T14:06:36;10.70;75.60
72814;DHT22;60945;48.516;-2.768;2022-12-01T14:09:23;10.80;76.00
72814;DHT22;60945;48.516;-2.768;2022-12-01T14:12:03;11.00;75.50
72814;DHT22;60945;48.516;-2.768;2022-12-01T14:14:36;10.90;75.30
72814;DHT22;60945;48.516;-2.768;2022-12-01T14:17:03;11.10;75.80
72814;DHT22;60945;48.516;-2.768;2022-12-01T14:19:42;11.30;74.80
72814;DHT22;60945;48.516;-2.768;2022-12-01T14:22:32;11.70;74.00
72814;DHT22;60945;48.516;-2.768;2022-12-01T14:24:59;11.80;72.40
72814;DHT22;60945;48.516;-2.768;2022-12-01T14:27:40;12.10;71.70
72814;DHT22;60945;48.516;-2.768;2022-12-01T14:36:21;12.50;69.40
72814;DHT22;60945;48.516;-2.768;2022-12-01T14:41:25;13.10;67.00
72814;DHT22;60945;48.516;-2.768;2022-12-01T14:44:08;13.20;66.40
72814;DHT22;60945;48.516;-2.768;2022-12-01T14:46:43;12.90;67.00
72814;DHT22;60945;48.516;-2.768;2022-12-01T14:49:17;12.60;68.30
72814;DHT22;60945;48.516;-2.768;2022-12-01T14:51:47;12.30;69.20
72814;DHT22;60945;48.516;-2.768;2022-12-01T14:54:22;11.90;69.90
72814;DHT22;60945;48.516;-2.768;2022-12-01T14:56:52;11.60;70.90
72814;DHT22;60945;48.516;-2.768;2022-12-01T14:59:20;11.40;72.10
72814;DHT22;60945;48.516;-2.768;2022-12-01T15:01:49;11.10;72.60
72814;DHT22;60945;48.516;-2.768;2022-12-01T15:04:16;11.10;72.10
72814;DHT22;60945;48.516;-2.768;2022-12-01T15:06:42;10.90;71.50
72814;DHT22;60945;48.516;-2.768;2022-12-01T15:09:18;10.80;68.90
72814;DHT22;60945;48.516;-2.768;2022-12-01T15:16:56;10.70;67.90
72814;DHT22;60945;48.516;-2.768;2022-12-01T15:19:33;10.60;67.50
72814;DHT22;60945;48.516;-2.768;2022-12-01T15:22:14;10.50;67.60
72814;DHT22;60945;48.516;-2.768;2022-12-01T15:24:40;10.40;67.50
72814;DHT22;60945;48.516;-2.768;2022-12-01T15:27:29;10.40;67.00
72814;DHT22;60945;48.516;-2.768;2022-12-01T15:29:56;10.40;66.90
72814;DHT22;60945;48.516;-2.768;2022-12-01T15:32:23;10.30;67.10
72814;DHT22;60945;48.516;-2.768;2022-12-01T15:34:52;10.20;67.40
72814;DHT22;60945;48.516;-2.768;2022-12-01T15:37:21;10.20;67.50
72814;DHT22;60945;48.516;-2.768;2022-12-01T15:40:06;10.20;67.80
72814;DHT22;60945;48.516;-2.768;2022-12-01T15:42:34;10.00;68.10
72814;DHT22;60945;48.516;-2.768;2022-12-01T15:45:21;9.80;65.70
72814;DHT22;60945;48.516;-2.768;2022-12-01T15:47:49;9.70;64.90
72814;DHT22;60945;48.516;-2.768;2022-12-01T15:50:37;9.70;63.70
72814;DHT22;60945;48.516;-2.768;2022-12-01T15:53:18;9.60;64.00
72814;DHT22;60945;48.516;-2.768;2022-12-01T15:55:49;9.50;64.40
72814;DHT22;60945;48.516;-2.768;2022-12-01T15:58:27;9.40;65.10
72814;DHT22;60945;48.516;-2.768;2022-12-01T16:00:58;9.40;65.10
72814;DHT22;60945;48.516;-2.768;2022-12-01T16:03:25;9.30;66.10
72814;DHT22;60945;48.516;-2.768;2022-12-01T16:05:50;9.30;66.30
72814;DHT22;60945;48.516;-2.768;2022-12-01T16:08:22;9.20;67.00
72814;DHT22;60945;48.516;-2.768;2022-12-01T16:11:08;9.10;67.60
72814;DHT22;60945;48.516;-2.768;2022-12-01T16:24:13;8.90;69.30
72814;DHT22;60945;48.516;-2.768;2022-12-01T16:26:50;8.80;69.40
72814;DHT22;60945;48.516;-2.768;2022-12-01T16:29:21;8.80;69.60
72814;DHT22;60945;48.516;-2.768;2022-12-01T16:31:48;8.70;70.10
72814;DHT22;60945;48.516;-2.768;2022-12-01T16:34:16;8.70;70.30
72814;DHT22;60945;48.516;-2.768;2022-12-01T16:36:42;8.60;70.50
72814;DHT22;60945;48.516;-2.768;2022-12-01T16:39:08;8.60;70.70
72814;DHT22;60945;48.516;-2.768;2022-12-01T16:41:35;8.60;71.10
72814;DHT22;60945;48.516;-2.768;2022-12-01T16:44:05;8.50;71.50
72814;DHT22;60945;48.516;-2.768;2022-12-01T16:46:31;8.50;71.80
72814;DHT22;60945;48.516;-2.768;2022-12-01T16:48:56;8.50;71.90
72814;DHT22;60945;48.516;-2.768;2022-12-01T16:51:22;8.40;72.60
72814;DHT22;60945;48.516;-2.768;2022-12-01T16:53:48;8.40;72.70
72814;DHT22;60945;48.516;-2.768;2022-12-01T16:56:14;8.40;73.00
72814;DHT22;60945;48.516;-2.768;2022-12-01T16:58:40;8.30;73.30
72814;DHT22;60945;48.516;-2.768;2022-12-01T17:01:07;8.30;73.50
72814;DHT22;60945;48.516;-2.768;2022-12-01T17:03:33;8.20;73.70
72814;DHT22;60945;48.516;-2.768;2022-12-01T17:06:02;8.20;73.90
72814;DHT22;60945;48.516;-2.768;2022-12-01T17:08:28;8.20;74.10
72814;DHT22;60945;48.516;-2.768;2022-12-01T17:10:54;8.20;74.40
72814;DHT22;60945;48.516;-2.768;2022-12-01T17:13:21;8.10;74.70
72814;DHT22;60945;48.516;-2.768;2022-12-01T17:15:52;8.10;74.70
72814;DHT22;60945;48.516;-2.768;2022-12-01T17:18:19;8.10;75.10
72814;DHT22;60945;48.516;-2.768;2022-12-01T17:20:55;8.00;75.20
72814;DHT22;60945;48.516;-2.768;2022-12-01T17:23:21;7.90;75.90
72814;DHT22;60945;48.516;-2.768;2022-12-01T17:25:46;7.90;76.00
72814;DHT22;60945;48.516;-2.768;2022-12-01T17:28:12;7.90;75.80
72814;DHT22;60945;48.516;-2.768;2022-12-01T17:30:38;7.80;76.50
72814;DHT22;60945;48.516;-2.768;2022-12-01T17:33:03;7.80;76.60
72814;DHT22;60945;48.516;-2.768;2022-12-01T17:35:29;7.70;77.20
72814;DHT22;60945;48.516;-2.768;2022-12-01T17:37:54;7.70;77.00
72814;DHT22;60945;48.516;-2.768;2022-12-01T17:40:20;7.60;77.70
72814;DHT22;60945;48.516;-2.768;2022-12-01T17:42:46;7.60;77.80
72814;DHT22;60945;48.516;-2.768;2022-12-01T17:45:14;7.50;78.40